createdAt,value
2018-09-28T00:02:15.534Z,4.87
2018-09-28T00:04:44.314Z,3.80
2018-09-28T00:07:13.008Z,4.27
2018-09-28T00:09:41.801Z,3.80
2018-09-28T00:12:10.541Z,4.73
2018-09-28T00:14:39.289Z,3.73
2018-09-28T00:17:08.057Z,6.63
2018-09-28T00:19:36.921Z,3.67
2018-09-28T00:22:05.611Z,5.67
2018-09-28T00:24:34.365Z,3.90
2018-09-28T00:27:03.131Z,3.93
2018-09-28T00:29:32.101Z,4.00
2018-09-28T00:32:00.824Z,3.33
2018-09-28T00:34:29.612Z,4.03
2018-09-28T00:36:58.331Z,3.93
2018-09-28T00:39:26.983Z,3.20
2018-09-28T00:41:55.681Z,4.10
2018-09-28T00:44:24.392Z,5.47
2018-09-28T00:46:53.133Z,3.67
2018-09-28T00:49:21.831Z,3.67
2018-09-28T00:51:50.680Z,4.63
2018-09-28T00:54:19.394Z,7.23
2018-09-28T00:56:48.079Z,4.23
2018-09-28T00:59:16.779Z,3.70
2018-09-28T01:01:45.449Z,5.47
2018-09-28T01:04:14.180Z,3.63
2018-09-28T01:06:42.926Z,3.73
2018-09-28T01:09:13.770Z,7.03
2018-09-28T01:11:42.471Z,3.43
2018-09-28T01:14:11.186Z,3.57
2018-09-28T01:16:39.910Z,3.00
2018-09-28T01:19:08.676Z,4.03
2018-09-28T01:21:37.399Z,5.73
2018-09-28T01:24:06.294Z,3.73
2018-09-28T01:26:35.042Z,3.23
2018-09-28T01:29:03.899Z,3.87
2018-09-28T01:31:32.575Z,3.77
2018-09-28T01:34:01.279Z,3.27
2018-09-28T01:36:30.088Z,3.33
2018-09-28T01:38:58.809Z,3.13
2018-09-28T01:41:27.494Z,3.40
2018-09-28T01:43:56.150Z,3.50
2018-09-28T01:46:24.955Z,3.53
2018-09-28T01:48:53.675Z,3.47
2018-09-28T01:51:22.423Z,3.10
2018-09-28T01:53:51.101Z,3.37
2018-09-28T01:56:19.809Z,5.37
2018-09-28T01:58:48.518Z,3.47
2018-09-28T02:01:17.170Z,4.73
2018-09-28T02:03:45.855Z,3.80
2018-09-28T02:06:14.669Z,3.37
2018-09-28T02:08:43.352Z,3.13
2018-09-28T02:11:12.039Z,2.90
2018-09-28T02:13:40.726Z,7.53
2018-09-28T02:16:09.934Z,3.97
2018-09-28T02:18:39.497Z,5.23
2018-09-28T02:21:08.239Z,3.17
2018-09-28T02:23:37.120Z,3.03
2018-09-28T02:26:05.883Z,3.00
2018-09-28T02:28:34.570Z,3.87
2018-09-28T02:31:03.264Z,3.53
2018-09-28T02:33:35.838Z,3.70
2018-09-28T02:36:04.565Z,3.57
2018-09-28T02:38:33.282Z,4.03
2018-09-28T02:41:02.110Z,3.33
2018-09-28T02:43:30.848Z,3.70
2018-09-28T02:45:59.570Z,3.40
2018-09-28T02:48:28.379Z,3.87
2018-09-28T02:50:57.019Z,3.83
2018-09-28T02:53:25.687Z,3.60
2018-09-28T02:55:54.479Z,5.83
2018-09-28T02:58:23.141Z,3.73
2018-09-28T03:00:52.042Z,3.20
2018-09-28T03:03:20.783Z,4.27
2018-09-28T03:05:49.455Z,3.43
2018-09-28T03:08:18.158Z,3.40
2018-09-28T03:10:46.868Z,3.47
2018-09-28T03:13:15.621Z,3.60
2018-09-28T03:15:44.424Z,3.73
2018-09-28T03:18:13.186Z,3.70
2018-09-28T03:20:41.863Z,3.47
2018-09-28T03:23:10.634Z,3.57
2018-09-28T03:25:39.314Z,4.87
2018-09-28T03:28:08.055Z,3.40
2018-09-28T03:30:36.754Z,3.93
2018-09-28T03:33:05.492Z,4.13
2018-09-28T03:35:34.231Z,4.20
2018-09-28T03:38:02.966Z,3.60
2018-09-28T03:40:31.680Z,4.10
2018-09-28T03:43:00.439Z,3.90
2018-09-28T03:45:29.109Z,3.40
2018-09-28T03:47:57.884Z,4.87
2018-09-28T03:50:26.650Z,3.47
2018-09-28T03:52:55.358Z,5.60
2018-09-28T03:55:24.040Z,3.63
2018-09-28T03:57:52.755Z,4.97
2018-09-28T04:00:21.787Z,3.57
2018-09-28T04:02:50.555Z,3.70
2018-09-28T04:05:19.249Z,3.40
2018-09-28T04:07:48.003Z,4.47
2018-09-28T04:10:16.675Z,3.90
2018-09-28T04:12:45.333Z,3.50
2018-09-28T04:15:14.223Z,2.80
2018-09-28T04:17:48.549Z,3.70
2018-09-28T04:20:17.266Z,3.37
2018-09-28T04:22:46.050Z,3.73
2018-09-28T04:25:14.877Z,3.40
2018-09-28T04:27:43.666Z,4.53
2018-09-28T04:30:12.433Z,3.80
2018-09-28T04:32:41.170Z,4.07
2018-09-28T04:35:09.947Z,5.50
2018-09-28T04:37:38.640Z,5.83
2018-09-28T04:40:07.439Z,3.83
2018-09-28T04:42:36.269Z,3.73
2018-09-28T04:45:05.273Z,3.43
2018-09-28T04:47:34.015Z,3.40
2018-09-28T04:50:02.771Z,3.57
2018-09-28T04:52:31.475Z,5.50
2018-09-28T04:55:00.238Z,4.63
2018-09-28T04:57:29.316Z,4.53
2018-09-28T04:59:58.103Z,3.50
2018-09-28T05:02:26.787Z,4.57
2018-09-28T05:04:55.497Z,5.20
2018-09-28T05:07:24.168Z,4.17
2018-09-28T05:09:52.886Z,4.77
2018-09-28T05:12:21.733Z,4.97
2018-09-28T05:14:50.457Z,5.17
2018-09-28T05:17:19.226Z,5.00
2018-09-28T05:19:47.991Z,8.33
2018-09-28T05:22:16.715Z,4.83
2018-09-28T05:24:45.369Z,4.70
2018-09-28T05:27:14.075Z,4.20
2018-09-28T05:29:42.882Z,4.30
2018-09-28T05:32:11.718Z,6.57
2018-09-28T05:34:40.514Z,5.40
2018-09-28T05:37:09.322Z,10.03
2018-09-28T05:39:38.055Z,6.67
2018-09-28T05:42:06.899Z,4.37
2018-09-28T05:44:35.599Z,4.00
2018-09-28T05:47:04.303Z,4.20
2018-09-28T05:49:33.141Z,6.70
2018-09-28T05:52:01.851Z,4.43
2018-09-28T05:54:30.625Z,4.80
2018-09-28T05:56:59.323Z,4.20
2018-09-28T05:59:33.218Z,5.77
2018-09-28T06:02:07.242Z,6.30
2018-09-28T06:04:41.136Z,6.17
2018-09-28T06:07:09.899Z,4.57
2018-09-28T06:09:38.611Z,5.87
2018-09-28T06:12:07.339Z,8.80
2018-09-28T06:14:36.126Z,8.00
2018-09-28T06:17:05.174Z,7.17
2018-09-28T06:19:34.008Z,8.33
2018-09-28T06:22:02.743Z,8.17
2018-09-28T06:24:31.458Z,6.73
2018-09-28T06:27:00.223Z,7.67
2018-09-28T06:29:28.967Z,10.33
2018-09-28T06:31:57.753Z,6.97
2018-09-28T06:34:26.540Z,8.17
2018-09-28T06:36:55.258Z,6.90
2018-09-28T06:39:24.001Z,6.83
2018-09-28T06:41:52.830Z,5.60
2018-09-28T06:44:21.483Z,10.77
2018-09-28T06:46:50.186Z,11.93
2018-09-28T06:49:18.860Z,10.03
2018-09-28T06:51:47.615Z,11.33
2018-09-28T06:54:16.411Z,9.17
2018-09-28T06:56:45.143Z,10.53
2018-09-28T06:59:13.922Z,6.93
2018-09-28T07:01:42.662Z,6.00
2018-09-28T07:04:11.443Z,10.07
2018-09-28T07:06:40.206Z,10.37
2018-09-28T07:09:11.018Z,6.07
2018-09-28T07:11:39.712Z,6.00
2018-09-28T07:14:08.822Z,7.90
2018-09-28T07:16:37.965Z,7.60
2018-09-28T07:19:06.930Z,6.87
2018-09-28T07:21:35.778Z,13.87
2018-09-28T07:24:04.615Z,7.27
2018-09-28T07:26:33.379Z,7.33
2018-09-28T07:29:02.126Z,6.97
2018-09-28T07:31:30.895Z,6.20
2018-09-28T07:33:59.692Z,8.77
2018-09-28T07:36:28.566Z,5.80
2018-09-28T07:38:57.261Z,6.90
2018-09-28T07:41:26.040Z,5.57
2018-09-28T07:43:54.777Z,5.83
2018-09-28T07:46:23.524Z,5.23
2018-09-28T07:48:52.166Z,5.77
2018-09-28T07:51:20.886Z,5.33
2018-09-28T07:53:49.594Z,5.83
2018-09-28T07:56:18.356Z,6.33
2018-09-28T07:58:47.090Z,5.13
2018-09-28T08:01:15.874Z,9.00
2018-09-28T08:03:44.619Z,4.60
2018-09-28T08:06:13.435Z,5.10
2018-09-28T08:08:43.742Z,5.03
2018-09-28T08:11:13.548Z,6.20
2018-09-28T08:13:43.399Z,5.33
2018-09-28T08:16:13.816Z,5.00
2018-09-28T08:18:43.786Z,5.60
2018-09-28T08:21:12.772Z,6.10
2018-09-28T08:23:41.481Z,6.23
2018-09-28T08:26:10.181Z,5.83
2018-09-28T08:28:38.866Z,6.17
2018-09-28T08:31:07.540Z,6.03
2018-09-28T08:33:36.416Z,7.83
2018-09-28T08:36:05.100Z,4.97
2018-09-28T08:38:33.857Z,8.00
2018-09-28T08:41:02.612Z,5.83
2018-09-28T08:43:31.314Z,4.40
2018-09-28T08:46:00.102Z,7.10
2018-09-28T08:48:28.830Z,4.97
2018-09-28T08:50:57.526Z,7.03
2018-09-28T08:53:26.277Z,9.40
2018-09-28T08:55:54.887Z,8.23
2018-09-28T08:58:23.586Z,6.63
2018-09-28T09:00:52.268Z,5.10
2018-09-28T09:03:20.987Z,5.80
2018-09-28T09:05:49.686Z,5.90
2018-09-28T09:08:18.430Z,5.73
2018-09-28T09:10:47.179Z,7.20
2018-09-28T09:13:15.907Z,6.97
2018-09-28T09:15:44.635Z,8.40
2018-09-28T09:18:13.464Z,7.30
2018-09-28T09:20:42.047Z,11.00
2018-09-28T09:23:10.813Z,8.23
2018-09-28T09:25:39.569Z,9.80
2018-09-28T09:28:08.327Z,7.80
2018-09-28T09:30:37.100Z,9.03
2018-09-28T09:33:05.870Z,11.30
2018-09-28T09:35:34.632Z,9.83
2018-09-28T09:38:03.414Z,8.93
2018-09-28T09:40:32.109Z,8.37
2018-09-28T09:43:00.823Z,8.93
2018-09-28T09:45:29.506Z,8.40
2018-09-28T09:47:58.212Z,9.53
2018-09-28T09:50:26.883Z,12.27
2018-09-28T09:52:55.634Z,12.10
2018-09-28T09:55:24.459Z,11.67
2018-09-28T09:57:53.319Z,9.57
2018-09-28T10:00:27.149Z,8.83
2018-09-28T10:03:06.858Z,10.00
2018-09-28T10:05:36.610Z,7.73
2018-09-28T10:08:05.378Z,8.03
2018-09-28T10:10:34.050Z,13.13
2018-09-28T10:13:02.776Z,10.50
2018-09-28T10:15:31.454Z,7.10
2018-09-28T10:18:00.170Z,9.43
2018-09-28T10:20:28.930Z,10.07
2018-09-28T10:22:57.551Z,8.93
2018-09-28T10:25:26.370Z,8.53
2018-09-28T10:27:55.187Z,12.93
2018-09-28T10:30:23.872Z,11.00
2018-09-28T10:32:52.662Z,11.63
2018-09-28T10:35:21.459Z,10.90
2018-09-28T10:37:50.163Z,9.37
2018-09-28T10:40:18.945Z,7.97
2018-09-28T10:42:47.564Z,12.73
2018-09-28T10:45:16.410Z,10.20
2018-09-28T10:47:45.080Z,15.37
2018-09-28T10:50:13.719Z,10.60
2018-09-28T10:52:42.486Z,11.43
2018-09-28T10:55:11.093Z,12.90
2018-09-28T10:57:39.812Z,10.80
2018-09-28T11:00:08.527Z,11.27
2018-09-28T11:02:37.258Z,11.00
2018-09-28T11:05:06.066Z,12.77
2018-09-28T11:07:34.714Z,10.60
2018-09-28T11:10:03.534Z,11.00
2018-09-28T11:12:32.202Z,11.10
2018-09-28T11:15:00.882Z,9.13
2018-09-28T11:17:29.594Z,15.23
2018-09-28T11:19:58.445Z,10.53
2018-09-28T11:22:27.142Z,13.47
2018-09-28T11:24:55.870Z,8.57
2018-09-28T11:27:24.668Z,9.47
2018-09-28T11:29:53.388Z,13.60
2018-09-28T11:32:22.117Z,10.77
2018-09-28T11:34:50.827Z,10.00
2018-09-28T11:37:20.514Z,9.17
2018-09-28T11:39:49.325Z,9.43
2018-09-28T11:42:18.018Z,12.07
2018-09-28T11:44:46.811Z,12.90
2018-09-28T11:47:15.526Z,10.23
2018-09-28T11:49:44.225Z,13.17
2018-09-28T11:52:12.890Z,10.83
2018-09-28T11:54:41.591Z,8.37
2018-09-28T11:57:10.281Z,6.80
2018-09-28T11:59:38.959Z,9.87
2018-09-28T12:02:07.807Z,8.93
2018-09-28T12:04:36.643Z,7.40
2018-09-28T12:07:05.524Z,10.07
2018-09-28T12:09:34.314Z,12.10
2018-09-28T12:12:03.114Z,6.87
2018-09-28T12:14:31.838Z,6.87
2018-09-28T12:17:00.619Z,10.23
2018-09-28T12:19:29.346Z,9.47
2018-09-28T12:21:58.098Z,6.20
2018-09-28T12:24:26.825Z,6.47
2018-09-28T12:26:55.522Z,6.77
2018-09-28T12:29:24.270Z,8.33
2018-09-28T12:31:52.999Z,6.40
2018-09-28T12:34:21.667Z,8.03
2018-09-28T12:36:50.569Z,8.97
2018-09-28T12:39:19.330Z,5.50
2018-09-28T12:41:48.531Z,6.60
2018-09-28T12:44:19.818Z,8.93
2018-09-28T12:46:49.883Z,17.17
2018-09-28T12:49:18.574Z,7.80
2018-09-28T12:51:47.246Z,6.93
2018-09-28T12:54:15.993Z,6.10
2018-09-28T12:56:44.805Z,6.10
2018-09-28T12:59:13.538Z,8.80
2018-09-28T13:01:42.376Z,8.67
2018-09-28T13:04:17.078Z,7.93
2018-09-28T13:06:47.106Z,8.20
2018-09-28T13:09:15.732Z,6.53
2018-09-28T13:11:45.857Z,14.30
2018-09-28T13:14:14.779Z,7.17
2018-09-28T13:16:43.621Z,8.53
2018-09-28T13:19:12.365Z,8.70
2018-09-28T13:21:42.264Z,8.23
2018-09-28T13:24:10.920Z,7.53
2018-09-28T13:26:39.800Z,7.40
2018-09-28T13:29:08.483Z,6.73
2018-09-28T13:31:37.455Z,11.17
2018-09-28T13:34:06.311Z,10.33
2018-09-28T13:36:35.103Z,8.93
2018-09-28T13:39:05.150Z,10.53
2018-09-28T13:41:33.919Z,11.40
2018-09-28T13:44:03.164Z,8.07
2018-09-28T13:46:32.297Z,10.47
2018-09-28T13:49:01.070Z,7.60
2018-09-28T13:51:29.891Z,8.80
2018-09-28T13:53:58.644Z,8.00
2018-09-28T13:56:27.599Z,8.33
2018-09-28T13:58:56.279Z,11.93
2018-09-28T14:01:25.174Z,15.80
2018-09-28T14:03:53.863Z,13.27
2018-09-28T14:06:22.605Z,18.57
2018-09-28T14:08:53.070Z,17.03
2018-09-28T14:11:21.894Z,14.57
2018-09-28T14:13:51.084Z,13.67
2018-09-28T14:16:20.492Z,16.33
2018-09-28T14:18:49.537Z,13.97
2018-09-28T14:21:19.684Z,12.80
2018-09-28T14:23:49.532Z,14.27
2018-09-28T14:26:18.408Z,11.33
2018-09-28T14:28:47.654Z,14.10
2018-09-28T14:31:16.434Z,18.07
2018-09-28T14:33:45.129Z,15.03
2018-09-28T14:36:13.916Z,15.00
2018-09-28T14:38:42.660Z,10.70
2018-09-28T14:41:11.474Z,14.23
2018-09-28T14:43:40.461Z,16.17
2018-09-28T14:46:09.355Z,12.60
2018-09-28T14:48:38.207Z,16.40
2018-09-28T14:51:07.445Z,17.87
2018-09-28T14:53:36.258Z,18.90
2018-09-28T14:56:04.942Z,19.27
2018-09-28T14:58:33.721Z,15.87
2018-09-28T15:01:02.559Z,15.40
2018-09-28T15:03:31.193Z,16.77
2018-09-28T15:05:59.997Z,19.70
2018-09-28T15:08:28.842Z,19.93
2018-09-28T15:10:57.971Z,15.00
2018-09-28T15:13:26.770Z,16.07
2018-09-28T15:15:55.473Z,15.60
2018-09-28T15:18:24.390Z,16.70
2018-09-28T15:20:53.320Z,16.07
2018-09-28T15:23:22.098Z,16.17
2018-09-28T15:25:50.823Z,17.93
2018-09-28T15:28:19.537Z,18.53
2018-09-28T15:30:48.270Z,18.97
2018-09-28T15:33:17.385Z,17.90
2018-09-28T15:35:46.630Z,14.27
2018-09-28T15:38:15.439Z,14.80
2018-09-28T15:40:44.192Z,15.67
2018-09-28T15:43:12.917Z,13.27
2018-09-28T15:45:42.476Z,14.23
2018-09-28T15:48:12.344Z,9.83
2018-09-28T15:50:41.106Z,14.67
2018-09-28T15:53:09.914Z,14.63
2018-09-28T15:55:38.682Z,11.33
2018-09-28T15:58:07.551Z,10.00
2018-09-28T16:00:36.359Z,9.57
2018-09-28T16:03:05.095Z,9.43
2018-09-28T16:05:33.826Z,7.43
2018-09-28T16:08:02.612Z,10.13
2018-09-28T16:10:33.302Z,6.73
2018-09-28T16:13:02.208Z,8.53
2018-09-28T16:15:31.152Z,9.67
2018-09-28T16:17:59.898Z,5.40
2018-09-28T16:20:28.621Z,6.90
2018-09-28T16:22:57.343Z,9.40
2018-09-28T16:25:26.172Z,6.77
2018-09-28T16:27:55.252Z,12.10
2018-09-28T16:30:24.038Z,7.63
2018-09-28T16:32:53.145Z,5.63
2018-09-28T16:35:21.818Z,7.47
2018-09-28T16:37:50.542Z,5.83
2018-09-28T16:40:19.303Z,7.33
2018-09-28T16:42:48.059Z,6.80
2018-09-28T16:45:16.844Z,4.97
2018-09-28T16:47:45.567Z,6.17
2018-09-28T16:50:14.302Z,4.27
2018-09-28T16:52:43.019Z,3.80
2018-09-28T16:55:11.790Z,4.20
2018-09-28T16:57:40.477Z,5.70
2018-09-28T17:00:09.267Z,2.77
2018-09-28T17:02:37.962Z,2.30
2018-09-28T17:05:06.690Z,3.93
2018-09-28T17:07:35.399Z,2.43
2018-09-28T17:10:04.224Z,3.93
2018-09-28T17:12:33.034Z,9.27
2018-09-28T17:15:01.779Z,2.40
2018-09-28T17:17:30.530Z,2.80
2018-09-28T17:19:59.351Z,3.30
2018-09-28T17:22:28.172Z,3.60
2018-09-28T17:24:56.912Z,7.47
2018-09-28T17:27:25.622Z,8.33
2018-09-28T17:29:54.411Z,5.97
2018-09-28T17:32:23.122Z,7.27
2018-09-28T17:34:51.895Z,7.33
2018-09-28T17:37:20.550Z,9.03
2018-09-28T17:39:49.361Z,9.43
2018-09-28T17:42:18.106Z,5.73
2018-09-28T17:44:46.867Z,9.10
2018-09-28T17:47:15.549Z,7.63
2018-09-28T17:49:44.250Z,6.30
2018-09-28T17:52:12.938Z,5.00
2018-09-28T17:54:41.639Z,5.23
2018-09-28T17:57:10.362Z,5.17
2018-09-28T17:59:39.170Z,4.87
2018-09-28T18:02:07.859Z,7.60
2018-09-28T18:04:36.703Z,4.33
2018-09-28T18:07:05.432Z,6.77
2018-09-28T18:09:34.266Z,5.57
2018-09-28T18:12:03.030Z,4.70
2018-09-28T18:14:31.782Z,6.17
2018-09-28T18:17:00.622Z,4.87
2018-09-28T18:19:29.402Z,5.23
2018-09-28T18:21:58.135Z,4.80
2018-09-28T18:24:26.815Z,5.20
2018-09-28T18:26:55.547Z,5.50
2018-09-28T18:29:24.243Z,6.03
2018-09-28T18:31:52.972Z,6.43
2018-09-28T18:34:21.709Z,5.07
2018-09-28T18:36:50.469Z,6.80
2018-09-28T18:39:19.161Z,5.63
2018-09-28T18:41:47.931Z,5.77
2018-09-28T18:44:16.658Z,5.17
2018-09-28T18:46:45.367Z,5.03
2018-09-28T18:49:14.066Z,6.83
2018-09-28T18:51:42.790Z,6.13
2018-09-28T18:54:11.638Z,4.90
2018-09-28T18:56:40.651Z,5.60
2018-09-28T18:59:09.319Z,6.93
2018-09-28T19:01:38.031Z,5.53
2018-09-28T19:04:06.815Z,6.80
2018-09-28T19:06:35.544Z,5.67
2018-09-28T19:09:06.102Z,5.67
2018-09-28T19:11:34.798Z,5.70
2018-09-28T19:14:03.530Z,5.23
2018-09-28T19:16:32.340Z,5.90
2018-09-28T19:19:01.036Z,6.07
2018-09-28T19:21:29.833Z,5.53
2018-09-28T19:23:58.578Z,6.57
2018-09-28T19:26:27.351Z,5.13
2018-09-28T19:28:56.065Z,8.17
2018-09-28T19:31:24.886Z,10.77
2018-09-28T19:33:53.642Z,6.43
2018-09-28T19:36:22.620Z,6.33
2018-09-28T19:38:51.573Z,5.83
2018-09-28T19:41:20.334Z,8.77
2018-09-28T19:43:49.312Z,7.23
2018-09-28T19:46:18.098Z,6.40
2018-09-28T19:48:47.179Z,6.53
2018-09-28T19:51:15.927Z,9.03
2018-09-28T19:53:44.599Z,6.70
2018-09-28T19:56:13.434Z,6.10
2018-09-28T19:58:42.147Z,8.73
2018-09-28T20:01:10.863Z,5.50
2018-09-28T20:03:39.566Z,6.23
2018-09-28T20:06:08.354Z,8.17
2018-09-28T20:08:37.082Z,6.50
2018-09-28T20:11:06.002Z,6.00
2018-09-28T20:13:34.730Z,6.10
2018-09-28T20:16:03.463Z,5.60
2018-09-28T20:18:32.252Z,6.27
2018-09-28T20:21:01.229Z,5.93
2018-09-28T20:23:30.074Z,5.43
2018-09-28T20:25:58.825Z,5.73
2018-09-28T20:28:28.003Z,5.47
2018-09-28T20:30:56.708Z,5.17
2018-09-28T20:33:25.425Z,5.60
2018-09-28T20:35:54.165Z,5.53
2018-09-28T20:38:23.049Z,5.77
2018-09-28T20:40:51.864Z,5.13
2018-09-28T20:43:21.018Z,7.63
2018-09-28T20:45:49.838Z,5.63
2018-09-28T20:48:18.695Z,12.20
2018-09-28T20:50:48.491Z,6.83
2018-09-28T20:53:17.296Z,8.03
2018-09-28T20:55:46.936Z,5.20
2018-09-28T20:58:16.493Z,5.23
2018-09-28T21:00:45.255Z,8.47
2018-09-28T21:03:14.066Z,6.07
2018-09-28T21:05:43.189Z,6.63
2018-09-28T21:08:12.375Z,7.13
2018-09-28T21:10:41.699Z,8.53
2018-09-28T21:13:10.897Z,5.10
2018-09-28T21:15:39.878Z,5.53
2018-09-28T21:18:08.759Z,6.57
2018-09-28T21:20:37.530Z,5.63
2018-09-28T21:23:06.369Z,6.23
2018-09-28T21:25:35.150Z,12.50
2018-09-28T21:28:04.018Z,4.60
2018-09-28T21:30:32.892Z,6.83
2018-09-28T21:33:01.676Z,6.67
2018-09-28T21:35:30.490Z,7.60
2018-09-28T21:37:59.252Z,4.83
2018-09-28T21:40:27.939Z,5.37
2018-09-28T21:42:56.753Z,5.37
2018-09-28T21:45:25.454Z,7.83
2018-09-28T21:47:54.223Z,5.90
2018-09-28T21:50:22.955Z,5.17
2018-09-28T21:52:51.743Z,5.17
2018-09-28T21:55:20.407Z,8.93
2018-09-28T21:57:49.161Z,5.47
2018-09-28T22:00:17.902Z,4.83
2018-09-28T22:02:46.933Z,4.37
2018-09-28T22:05:15.825Z,6.43
2018-09-28T22:07:44.506Z,3.37
2018-09-28T22:10:13.202Z,5.53
2018-09-28T22:12:42.018Z,6.87
2018-09-28T22:15:10.796Z,4.57
2018-09-28T22:17:39.524Z,3.83
2018-09-28T22:20:08.311Z,6.60
2018-09-28T22:22:37.063Z,6.43
2018-09-28T22:25:05.883Z,2.23
2018-09-28T22:27:34.571Z,6.00
2018-09-28T22:30:03.363Z,2.60
2018-09-28T22:32:32.035Z,3.33
2018-09-28T22:35:00.815Z,5.83
2018-09-28T22:37:29.511Z,6.30
2018-09-28T22:39:58.326Z,4.97
2018-09-28T22:42:27.062Z,6.07
2018-09-28T22:44:55.799Z,6.00
2018-09-28T22:47:24.539Z,4.90
2018-09-28T22:49:53.319Z,3.03
2018-09-28T22:52:21.998Z,2.60
2018-09-28T22:54:50.837Z,3.97
2018-09-28T22:57:19.489Z,2.87
2018-09-28T22:59:48.165Z,2.93
2018-09-28T23:02:16.808Z,4.57
2018-09-28T23:04:45.501Z,3.43
2018-09-28T23:07:14.203Z,4.77
2018-09-28T23:09:43.046Z,5.17
2018-09-28T23:12:11.722Z,3.33
2018-09-28T23:14:40.480Z,9.00
2018-09-28T23:17:09.237Z,4.17
2018-09-28T23:19:38.006Z,5.17
2018-09-28T23:22:06.783Z,8.20
2018-09-28T23:24:35.487Z,3.33
2018-09-28T23:27:04.143Z,5.77
2018-09-28T23:29:32.834Z,6.47
2018-09-28T23:32:01.574Z,3.13
2018-09-28T23:34:30.318Z,2.70
2018-09-28T23:36:58.938Z,3.87
2018-09-28T23:39:27.590Z,4.63
2018-09-28T23:41:56.286Z,4.23
2018-09-28T23:44:24.977Z,6.67
2018-09-28T23:46:53.679Z,4.87
2018-09-28T23:49:22.678Z,3.70
2018-09-28T23:51:51.771Z,6.23
2018-09-28T23:54:20.458Z,2.57
2018-09-28T23:56:49.224Z,3.40
2018-09-28T23:59:17.924Z,5.10
